createdAt,value
2022-08-18T00:04:48.868Z,21.90
2022-08-18T00:09:52.266Z,21.90
2022-08-18T00:14:55.115Z,21.80
2022-08-18T00:19:57.076Z,21.80
2022-08-18T00:24:58.800Z,21.80
2022-08-18T00:30:02.624Z,21.70
2022-08-18T00:35:20.742Z,21.70
2022-08-18T00:40:28.227Z,21.60
2022-08-18T00:45:33.164Z,21.60
2022-08-18T00:50:44.624Z,21.60
2022-08-18T00:55:53.961Z,21.60
2022-08-18T01:00:57.189Z,21.60
2022-08-18T01:06:21.617Z,21.60
2022-08-18T01:11:23.339Z,21.50
2022-08-18T01:16:56.744Z,21.40
2022-08-18T01:22:07.234Z,21.50
2022-08-18T01:27:10.031Z,21.50
2022-08-18T01:32:19.450Z,21.50
2022-08-18T01:37:24.286Z,21.40
2022-08-18T01:42:26.027Z,21.40
2022-08-18T01:47:28.731Z,21.40
2022-08-18T01:52:35.317Z,21.40
2022-08-18T01:57:45.068Z,21.40
2022-08-18T02:02:58.711Z,21.40
2022-08-18T02:08:04.814Z,21.50
2022-08-18T02:13:06.531Z,21.40
2022-08-18T02:18:15.397Z,21.30
2022-08-18T02:23:37.892Z,21.20
2022-08-18T02:28:40.185Z,21.20
2022-08-18T02:33:46.963Z,21.20
2022-08-18T02:38:58.945Z,21.20
2022-08-18T02:44:01.760Z,21.10
2022-08-18T02:49:05.049Z,21.00
2022-08-18T02:54:09.407Z,20.90
2022-08-18T02:59:14.475Z,20.90
2022-08-18T03:04:21.161Z,20.90
2022-08-18T03:09:24.712Z,21.00
2022-08-18T03:14:27.218Z,21.00
2022-08-18T03:19:29.670Z,21.00
2022-08-18T03:24:32.384Z,21.00
2022-08-18T03:29:35.903Z,20.90
2022-08-18T03:34:37.591Z,20.90
2022-08-18T03:39:40.608Z,20.90
2022-08-18T03:44:42.309Z,20.80
2022-08-18T03:49:44.663Z,20.80
2022-08-18T03:54:46.591Z,20.70
2022-08-18T03:59:48.341Z,20.70
2022-08-18T04:04:51.252Z,20.70
2022-08-18T04:09:53.192Z,20.60
2022-08-18T04:14:54.840Z,20.70
2022-08-18T04:19:56.812Z,20.60
2022-08-18T04:24:58.425Z,20.70
2022-08-18T04:30:00.914Z,20.70
2022-08-18T04:35:03.233Z,20.70
2022-08-18T04:40:06.066Z,20.60
2022-08-18T04:45:08.176Z,20.70
2022-08-18T04:50:10.604Z,20.70
2022-08-18T04:55:12.362Z,20.70
2022-08-18T05:00:14.413Z,20.70
2022-08-18T05:05:16.096Z,20.80
2022-08-18T05:10:18.033Z,20.80
2022-08-18T05:15:20.881Z,20.90
2022-08-18T05:20:23.170Z,20.90
2022-08-18T05:25:25.002Z,21.00
2022-08-18T05:30:26.688Z,21.00
2022-08-18T05:35:36.355Z,21.00
2022-08-18T05:40:38.227Z,21.10
2022-08-18T05:45:41.570Z,21.20
2022-08-18T05:50:43.347Z,21.20
2022-08-18T05:56:20.594Z,21.30
2022-08-18T06:01:45.913Z,21.30
2022-08-18T06:06:49.258Z,21.40
2022-08-18T06:11:52.935Z,21.30
2022-08-18T06:17:18.364Z,21.30
2022-08-18T06:22:56.140Z,21.30
2022-08-18T06:28:17.170Z,21.30
2022-08-18T06:33:51.749Z,21.30
2022-08-18T06:39:26.583Z,21.30
2022-08-18T06:45:01.191Z,21.10
2022-08-18T06:50:18.337Z,21.00
2022-08-18T06:55:36.016Z,20.90
2022-08-18T07:00:43.630Z,20.90
2022-08-18T07:06:01.864Z,21.00
2022-08-18T07:11:30.795Z,21.10
2022-08-18T07:16:57.352Z,21.20
2022-08-18T07:22:06.606Z,21.20
2022-08-18T07:27:17.360Z,21.20
2022-08-18T07:32:22.706Z,21.20
2022-08-18T07:37:37.983Z,21.20
2022-08-18T07:42:53.971Z,21.20
2022-08-18T07:48:27.300Z,21.10
2022-08-18T07:53:55.817Z,21.00
2022-08-18T07:59:12.622Z,21.00
2022-08-18T08:04:37.015Z,21.00
2022-08-18T08:10:03.012Z,21.00
2022-08-18T08:15:28.034Z,21.00
2022-08-18T08:20:52.164Z,21.10
2022-08-18T08:26:15.975Z,21.10
2022-08-18T08:31:45.463Z,21.00
2022-08-18T08:36:49.646Z,21.20
2022-08-18T08:42:28.963Z,21.10
2022-08-18T08:47:42.466Z,21.10
2022-08-18T08:52:56.913Z,21.20
2022-08-18T08:58:07.960Z,21.50
2022-08-18T09:03:37.285Z,21.70
2022-08-18T09:09:05.115Z,21.80
2022-08-18T09:14:37.437Z,21.90
2022-08-18T09:19:47.761Z,22.10
2022-08-18T09:24:52.766Z,22.30
2022-08-18T09:29:57.733Z,22.50
2022-08-18T09:35:17.314Z,22.70
2022-08-18T09:41:03.735Z,22.80
2022-08-18T09:46:05.821Z,22.90
2022-08-18T09:51:18.659Z,23.10
2022-08-18T09:56:54.393Z,23.20
2022-08-18T10:01:57.373Z,23.00
2022-08-18T10:07:43.968Z,23.10
2022-08-18T10:13:13.660Z,23.10
2022-08-18T10:18:37.971Z,23.10
2022-08-18T10:24:35.118Z,23.20
2022-08-18T10:29:50.892Z,23.40
2022-08-18T10:34:55.327Z,23.50
2022-08-18T10:40:01.587Z,23.40
2022-08-18T10:45:16.045Z,23.50
2022-08-18T10:50:28.453Z,23.60
2022-08-18T10:55:58.859Z,23.40
2022-08-18T11:01:32.878Z,23.60
2022-08-18T11:06:43.942Z,23.40
2022-08-18T11:11:52.805Z,23.00
2022-08-18T11:17:20.975Z,23.20
2022-08-18T11:22:34.176Z,23.20
2022-08-18T11:27:36.308Z,23.40
2022-08-18T11:32:51.663Z,23.50
2022-08-18T11:37:59.921Z,23.50
2022-08-18T11:43:06.843Z,23.50
2022-08-18T11:48:37.651Z,23.60
2022-08-18T11:53:58.897Z,23.90
2022-08-18T11:59:53.004Z,24.30
2022-08-18T12:04:57.810Z,24.90
2022-08-18T12:10:16.616Z,25.50
2022-08-18T12:15:24.671Z,25.90
2022-08-18T12:20:27.261Z,26.10
2022-08-18T12:25:28.872Z,26.50
2022-08-18T12:30:30.611Z,26.50
2022-08-18T12:35:34.882Z,27.10
2022-08-18T12:40:36.990Z,27.60
2022-08-18T12:45:39.050Z,27.70
2022-08-18T12:50:54.067Z,27.80
2022-08-18T12:55:57.431Z,28.10
2022-08-18T13:00:59.220Z,28.60
2022-08-18T13:06:00.900Z,28.70
2022-08-18T13:11:14.553Z,29.20
2022-08-18T13:16:38.674Z,29.60
2022-08-18T13:21:41.658Z,30.10
2022-08-18T13:26:46.940Z,30.10
2022-08-18T13:31:57.599Z,30.70
2022-08-18T13:36:59.469Z,30.90
2022-08-18T13:42:21.562Z,31.50
2022-08-18T13:47:27.465Z,32.20
2022-08-18T13:52:41.141Z,32.40
2022-08-18T13:57:49.934Z,32.60
2022-08-18T14:02:53.810Z,32.60
2022-08-18T14:07:55.492Z,33.10
2022-08-18T14:13:00.786Z,32.70
2022-08-18T14:18:16.217Z,32.50
2022-08-18T14:23:36.665Z,32.30
2022-08-18T14:28:41.115Z,32.00
2022-08-18T14:33:51.014Z,31.70
2022-08-18T14:38:54.107Z,31.30
2022-08-18T14:44:12.580Z,30.80
2022-08-18T14:49:15.403Z,30.70
2022-08-18T14:54:31.133Z,30.80
2022-08-18T14:59:34.706Z,30.80
2022-08-18T15:04:52.991Z,30.70
2022-08-18T15:10:14.795Z,30.40
2022-08-18T15:15:18.795Z,30.20
2022-08-18T15:20:29.033Z,30.00
2022-08-18T15:25:46.923Z,29.70
2022-08-18T15:31:16.654Z,29.40
2022-08-18T15:36:16.513Z,29.20
2022-08-18T15:41:44.262Z,29.00
2022-08-18T15:46:53.233Z,28.80
2022-08-18T15:51:55.214Z,28.70
2022-08-18T15:56:58.829Z,28.50
2022-08-18T16:02:00.916Z,28.30
2022-08-18T16:07:02.655Z,28.10
2022-08-18T16:12:04.657Z,27.90
2022-08-18T16:17:09.448Z,27.90
2022-08-18T16:22:19.822Z,27.70
2022-08-18T16:27:23.472Z,27.60
2022-08-18T16:32:25.173Z,27.40
2022-08-18T16:37:27.591Z,27.30
2022-08-18T16:42:32.644Z,27.20
2022-08-18T16:47:38.924Z,27.20
2022-08-18T16:52:41.236Z,27.10
2022-08-18T16:58:02.593Z,27.10
2022-08-18T17:03:24.989Z,27.00
2022-08-18T17:08:27.192Z,27.00
2022-08-18T17:13:29.741Z,26.90
2022-08-18T17:18:31.803Z,26.80
2022-08-18T17:23:38.728Z,26.70
2022-08-18T17:28:50.631Z,26.50
2022-08-18T17:34:03.484Z,26.40
2022-08-18T17:39:08.362Z,26.30
2022-08-18T17:44:10.100Z,26.10
2022-08-18T17:49:45.379Z,26.00
2022-08-18T17:54:52.241Z,25.90
2022-08-18T18:00:11.372Z,25.80
2022-08-18T18:05:18.628Z,25.60
2022-08-18T18:10:37.694Z,25.50
2022-08-18T18:15:45.998Z,25.40
2022-08-18T18:21:02.363Z,25.30
2022-08-18T18:26:26.137Z,25.20
2022-08-18T18:31:35.493Z,25.10
2022-08-18T18:36:47.185Z,24.90
2022-08-18T18:41:54.011Z,24.80
2022-08-18T18:47:07.098Z,24.60
2022-08-18T18:52:25.227Z,24.60
2022-08-18T18:58:09.420Z,24.40
2022-08-18T19:03:15.827Z,24.10
2022-08-18T19:08:48.623Z,23.90
2022-08-18T19:14:09.828Z,23.70
2022-08-18T19:19:37.182Z,23.50
2022-08-18T19:24:52.479Z,23.40
2022-08-18T19:30:00.191Z,23.30
2022-08-18T19:35:11.890Z,23.20
2022-08-18T19:40:21.222Z,23.10
2022-08-18T19:45:35.553Z,23.10
2022-08-18T19:50:53.004Z,23.10
2022-08-18T19:56:21.493Z,23.00
2022-08-18T20:01:56.665Z,23.00
2022-08-18T20:07:27.932Z,23.00
2022-08-18T20:12:48.346Z,23.00
2022-08-18T20:18:19.561Z,23.00
2022-08-18T20:23:38.974Z,23.00
2022-08-18T20:28:40.804Z,23.00
2022-08-18T20:34:03.964Z,23.00
2022-08-18T20:39:48.459Z,23.00
2022-08-18T20:44:50.178Z,23.00
2022-08-18T20:49:58.304Z,22.90
2022-08-18T20:55:11.656Z,22.80
2022-08-18T21:00:22.605Z,22.80
2022-08-18T21:05:40.383Z,22.70
2022-08-18T21:10:59.311Z,22.60
2022-08-18T21:16:00.985Z,22.50
2022-08-18T21:21:06.374Z,22.50
2022-08-18T21:26:13.595Z,22.40
2022-08-18T21:31:44.174Z,22.30
2022-08-18T21:36:55.451Z,22.20
2022-08-18T21:41:58.511Z,22.10
2022-08-18T21:47:14.080Z,22.00
2022-08-18T21:52:24.170Z,21.80
2022-08-18T21:57:29.139Z,21.70
2022-08-18T22:02:31.192Z,21.60
2022-08-18T22:07:35.579Z,21.60
2022-08-18T22:12:56.293Z,21.50
2022-08-18T22:18:02.462Z,21.50
2022-08-18T22:23:31.845Z,21.50
2022-08-18T22:28:33.805Z,21.40
2022-08-18T22:33:35.436Z,21.40
2022-08-18T22:38:37.178Z,21.30
2022-08-18T22:43:38.836Z,21.30
2022-08-18T22:48:40.533Z,21.40
2022-08-18T22:53:42.155Z,21.30
2022-08-18T22:58:46.388Z,21.30
2022-08-18T23:03:48.292Z,21.40
2022-08-18T23:08:55.241Z,21.40
2022-08-18T23:14:00.445Z,21.40
2022-08-18T23:19:02.781Z,21.40
2022-08-18T23:24:05.619Z,21.40
2022-08-18T23:29:11.351Z,21.50
2022-08-18T23:34:17.325Z,21.40
2022-08-18T23:39:19.042Z,21.40
2022-08-18T23:44:23.891Z,21.50
2022-08-18T23:49:30.488Z,21.50
2022-08-18T23:54:34.785Z,21.40
2022-08-18T23:59:36.624Z,21.40
